Hav Tind — OZ2071 — position and weather

sailwx.info

Track history (hours):
 
Tides and Currents Weather Stations Pressure Air Temp Water Temp Dewpoint Dewpoint Depression Visibility Wind Speed Wind Dir Waves Ship Positions

Hav Tind

Last reported at 2014-Oct-25 08:33 UTC. Time now 2014-Oct-25 08:56 UTC.
Position N 62°14' W 006°48'.

Length 60 m; draft 4 m.

Type: Cargo ship. MMSI: 231565000.

Date/timePositionNaut miles runAvg speedWind from/ knotsBaromVisibWave heightAir tempDewpointWater temp
2014-Oct-25 08:33N 62°14' W 006°48'0 0.0
2014-Oct-25 07:19N 62°14' W 006°48'0 0.0
2014-Oct-25 06:31N 62°14' W 006°48'0 0.0
2014-Oct-25 05:31N 62°14' W 006°48'0 0.0
2014-Oct-25 04:28N 62°14' W 006°48'0 0.0
2014-Oct-25 03:31N 62°14' W 006°48'0 0.0
2014-Oct-25 02:25N 62°14' W 006°48'0 0.0
2014-Oct-25 01:28N 62°14' W 006°48'0 0.0
2014-Oct-25 00:31N 62°14' W 006°48'0 0.0
2014-Oct-24 23:28N 62°14' W 006°48'0 0.0
2014-Oct-24 22:33N 62°14' W 006°48'0 0.0
2014-Oct-24 21:28N 62°14' W 006°48'0 0.0
2014-Oct-24 20:31N 62°14' W 006°48'0 0.0
2014-Oct-24 19:28N 62°14' W 006°48'0 0.0
2014-Oct-24 18:27N 62°14' W 006°48'7 7.5
2014-Oct-24 17:32N 62°11' W 006°35'4 0.8
2014-Oct-24 12:12N 62°11' W 006°27'3 1.9
2014-Oct-24 10:32N 62°10' W 006°33'8 7.5
2014-Oct-24 09:30N 62°13' W 006°48'0 0.1
2014-Oct-24 08:30N 62°14' W 006°48'1 0.7
2014-Oct-24 07:31N 62°14' W 006°48'0 0.0
2014-Oct-24 06:22N 62°14' W 006°48'0 0.0
2014-Oct-24 05:31N 62°14' W 006°48'0 0.0
2014-Oct-24 04:31N 62°14' W 006°48'0 0.0
2014-Oct-24 03:31N 62°14' W 006°48'0 0.0
2014-Oct-24 02:31N 62°14' W 006°48'0 0.0
2014-Oct-24 01:31N 62°14' W 006°48'0 0.0
2014-Oct-24 00:28N 62°14' W 006°48'0 0.0
2014-Oct-23 23:22N 62°14' W 006°48'0 0.0
2014-Oct-23 22:31N 62°14' W 006°48'0 0.0
2014-Oct-23 21:31N 62°14' W 006°48'0 0.0
2014-Oct-23 20:28N 62°14' W 006°48'0 0.0
2014-Oct-23 19:31N 62°14' W 006°48'0 0.0
2014-Oct-23 18:31N 62°14' W 006°48'5 4.9
2014-Oct-23 17:33N 62°12' W 006°39'3 2.4
2014-Oct-23 16:28N 62°10' W 006°43'0 0.0
2014-Oct-23 15:25N 62°10' W 006°43'3 2.7
2014-Oct-23 14:28N 62°12' W 006°39'5 5.0
2014-Oct-23 13:29N 62°14' W 006°48'0 0.1
2014-Oct-23 12:33N 62°14' W 006°48'2 0.3
2014-Oct-23 07:22N 62°15' W 006°46'2 1.9
2014-Oct-23 06:32N 62°14' W 006°48'0 0.0
2014-Oct-23 05:32N 62°14' W 006°48'0 0.0
2014-Oct-23 04:32N 62°14' W 006°48'0 0.0
2014-Oct-23 03:29N 62°14' W 006°48'0 0.0
2014-Oct-23 02:26N 62°14' W 006°48'0 0.0
2014-Oct-23 01:29N 62°14' W 006°48'0 0.0
2014-Oct-23 00:29N 62°14' W 006°48'0 0.0
2014-Oct-22 23:29N 62°14' W 006°48'0 0.0
2014-Oct-22 22:32N 62°14' W 006°48'0 0.0
2014-Oct-22 21:32N 62°14' W 006°48'0 0.0
2014-Oct-22 20:32N 62°14' W 006°48'0 0.0
2014-Oct-22 19:23N 62°14' W 006°48'0 0.0
2014-Oct-22 18:32N 62°14' W 006°48'0 0.0
2014-Oct-22 17:29N 62°14' W 006°48'1 1.3
2014-Oct-22 16:33N 62°14' W 006°46'7 7.0
2014-Oct-22 15:33N 62°08' W 006°38'2 1.6
2014-Oct-22 14:34N 62°08' W 006°42'7 6.8
2014-Oct-22 13:33N 62°01' W 006°42'3 2.7
2014-Oct-22 12:33N 61°59' W 006°45'4 4.4
2014-Oct-22 11:33N 62°03' W 006°41'8 7.6
2014-Oct-22 10:33N 62°10' W 006°36'7 5.7
2014-Oct-22 09:19N 62°14' W 006°48'0 0.0
2014-Oct-22 08:31N 62°14' W 006°48'0 0.0
2014-Oct-22 07:28N 62°14' W 006°48'0 0.0
2014-Oct-22 06:28N 62°14' W 006°48'0 0.0
2014-Oct-22 05:22N 62°14' W 006°48'0 0.0
2014-Oct-22 04:28N 62°14' W 006°48'0 0.0
2014-Oct-22 03:28N 62°14' W 006°48'0 0.0
2014-Oct-22 02:28N 62°14' W 006°48'0 0.0
2014-Oct-22 01:31N 62°14' W 006°48'0 0.0
2014-Oct-22 00:28N 62°14' W 006°48'0 0.0
2014-Oct-21 23:19N 62°14' W 006°48'0 0.0
2014-Oct-21 22:22N 62°14' W 006°48'0 0.0
2014-Oct-21 21:31N 62°14' W 006°48'0 0.0
2014-Oct-21 20:31N 62°14' W 006°48'0 0.0
2014-Oct-21 19:28N 62°14' W 006°48'0 0.0
2014-Oct-21 18:13N 62°14' W 006°48'0 0.0
2014-Oct-21 17:28N 62°14' W 006°48'0 0.0
2014-Oct-21 16:31N 62°14' W 006°48'0 0.0
2014-Oct-21 15:31N 62°14' W 006°48'0 0.0
2014-Oct-21 14:31N 62°14' W 006°48'0 0.0
2014-Oct-21 13:25N 62°14' W 006°48'0 0.0
2014-Oct-21 12:19N 62°14' W 006°48'0 0.0
2014-Oct-21 11:25N 62°14' W 006°48'0 0.0
2014-Oct-21 10:31N 62°14' W 006°48'0 0.0
2014-Oct-21 09:22N 62°14' W 006°48'0 0.0
2014-Oct-21 08:19N 62°14' W 006°48'0 0.0
2014-Oct-21 07:28N 62°14' W 006°48'0 0.0
2014-Oct-21 06:16N 62°14' W 006°48'0 0.0
2014-Oct-21 05:25N 62°14' W 006°48'0 0.0
2014-Oct-21 04:28N 62°14' W 006°48'0 0.0
2014-Oct-21 03:28N 62°14' W 006°48'0 0.0
2014-Oct-21 02:28N 62°14' W 006°48'0 0.0
2014-Oct-21 01:31N 62°14' W 006°48'0 0.0
2014-Oct-21 00:25N 62°14' W 006°48'0 0.0
2014-Oct-20 23:31N 62°14' W 006°48'0 0.0
2014-Oct-20 22:31N 62°14' W 006°48'0 0.0
2014-Oct-20 21:28N 62°14' W 006°48'0 0.0
2014-Oct-20 20:25N 62°14' W 006°48'0 0.0
2014-Oct-20 19:25N 62°14' W 006°48'0 0.0
2014-Oct-20 18:31N 62°14' W 006°48'0 0.0
2014-Oct-20 17:28N 62°14' W 006°48'0 0.0
2014-Oct-20 16:19N 62°14' W 006°48'0 0.0
2014-Oct-20 15:25N 62°14' W 006°48'8 9.5
2014-Oct-20 14:34N 62°10' W 006°33'3 0.6
2014-Oct-20 09:04N 62°11' W 006°27'6 8.8
2014-Oct-20 08:21N 62°12' W 006°39'4 5.4
2014-Oct-20 07:33N 62°14' W 006°48'0 0.0
2014-Oct-20 06:33N 62°14' W 006°48'0 0.1
2014-Oct-20 05:18N 62°14' W 006°48'0 0.0
2014-Oct-20 04:30N 62°14' W 006°48'0 0.0
2014-Oct-20 03:18N 62°14' W 006°48'0 0.0
2014-Oct-20 02:21N 62°14' W 006°48'0 0.0
2014-Oct-20 01:27N 62°14' W 006°48'0 0.0
2014-Oct-20 00:30N 62°14' W 006°48'0 0.0
2014-Oct-19 23:12N 62°14' W 006°48'0 0.0
2014-Oct-19 22:33N 62°14' W 006°48'0 0.0
2014-Oct-19 21:27N 62°14' W 006°48'0 0.0
2014-Oct-19 20:24N 62°14' W 006°48'0 0.0
2014-Oct-19 19:33N 62°14' W 006°48'0 0.0
2014-Oct-19 18:33N 62°14' W 006°48'0 0.0
2014-Oct-19 17:33N 62°14' W 006°48'0 0.0
2014-Oct-19 16:18N 62°14' W 006°48'0 0.0
2014-Oct-19 15:33N 62°14' W 006°48'0 0.0
2014-Oct-19 14:18N 62°14' W 006°48'0 0.0
2014-Oct-19 13:33N 62°14' W 006°48'0 0.0
2014-Oct-19 12:33N 62°14' W 006°48'0 0.0
2014-Oct-19 11:33N 62°14' W 006°48'0 0.0
2014-Oct-19 10:30N 62°14' W 006°48'0 0.0
2014-Oct-19 09:33N 62°14' W 006°48'0 0.0
2014-Oct-19 08:30N 62°14' W 006°48'0 0.0
2014-Oct-19 07:33N 62°14' W 006°48'0 0.0
2014-Oct-19 06:33N 62°14' W 006°48'0 0.0
2014-Oct-19 05:33N 62°14' W 006°48'0 0.0
2014-Oct-19 04:33N 62°14' W 006°48'0 0.0
2014-Oct-19 03:33N 62°14' W 006°48'0 0.0
2014-Oct-19 02:33N 62°14' W 006°48'0 0.0
2014-Oct-19 01:33N 62°14' W 006°48'0 0.0
2014-Oct-19 00:30N 62°14' W 006°48'0 0.0
2014-Oct-18 23:33N 62°14' W 006°48'0 0.0
2014-Oct-18 22:30N 62°14' W 006°48'0 0.0
2014-Oct-18 21:33N 62°14' W 006°48'0 0.0
2014-Oct-18 20:30N 62°14' W 006°48'0 0.0
2014-Oct-18 19:33N 62°14' W 006°48'0 0.0
2014-Oct-18 18:27N 62°14' W 006°48'0 0.0
2014-Oct-18 17:33N 62°14' W 006°48'0 0.0
2014-Oct-18 16:33N 62°14' W 006°48'0 0.0
2014-Oct-18 15:33N 62°14' W 006°48'0 0.0
2014-Oct-18 14:33N 62°14' W 006°48'0 0.0
2014-Oct-18 13:30N 62°14' W 006°48'0 0.0
2014-Oct-18 12:33N 62°14' W 006°48'0 0.0
2014-Oct-18 11:33N 62°14' W 006°48'0 0.0
2014-Oct-18 10:33N 62°14' W 006°48'0 0.0
2014-Oct-18 09:30N 62°14' W 006°48'0 0.0
2014-Oct-18 08:33N 62°14' W 006°48'0 0.0
2014-Oct-18 07:33N 62°14' W 006°48'0 0.0
2014-Oct-18 06:33N 62°14' W 006°48'0 0.0
2014-Oct-18 05:33N 62°14' W 006°48'0 0.0
2014-Oct-18 04:33N 62°14' W 006°48'0 0.0
2014-Oct-18 03:33N 62°14' W 006°48'0 0.0
2014-Oct-18 02:33N 62°14' W 006°48'0 0.0
2014-Oct-18 01:33N 62°14' W 006°48'0 0.0
2014-Oct-18 00:33N 62°14' W 006°48'0 0.0
2014-Oct-17 23:33N 62°14' W 006°48'0 0.0
2014-Oct-17 22:33N 62°14' W 006°48'0 0.0
2014-Oct-17 21:33N 62°14' W 006°48'0 0.0
2014-Oct-17 20:30N 62°14' W 006°48'0 0.0
2014-Oct-17 19:33N 62°14' W 006°48'0 0.0
2014-Oct-17 18:33N 62°14' W 006°48'0 0.0
2014-Oct-17 17:33N 62°14' W 006°48'0 0.1
2014-Oct-17 16:33N 62°14' W 006°48'0 0.0
2014-Oct-17 15:33N 62°14' W 006°48'0 0.0
2014-Oct-17 14:33N 62°14' W 006°48'0 0.0
2014-Oct-17 13:33N 62°14' W 006°48'0 0.0
2014-Oct-17 12:33N 62°14' W 006°48'0 0.0
2014-Oct-17 11:33N 62°14' W 006°48'0 0.0
2014-Oct-17 10:33N 62°14' W 006°48'0 0.0
2014-Oct-17 09:33N 62°14' W 006°48'0 0.0
2014-Oct-17 08:33N 62°14' W 006°48'0 0.0
2014-Oct-17 07:33N 62°14' W 006°48'0 0.0
2014-Oct-17 06:33N 62°14' W 006°48'0 0.0
2014-Oct-17 05:33N 62°14' W 006°48'0 0.0
2014-Oct-17 04:33N 62°14' W 006°48'0 0.0
2014-Oct-17 03:33N 62°14' W 006°48'0 0.0
2014-Oct-17 02:33N 62°14' W 006°48'0 0.0
2014-Oct-17 01:33N 62°14' W 006°48'0 0.0
2014-Oct-17 00:33N 62°14' W 006°48'0 0.0
2014-Oct-16 23:33N 62°14' W 006°48'0 0.0
2014-Oct-16 22:33N 62°14' W 006°48'0 0.0
2014-Oct-16 21:33N 62°14' W 006°48'0 0.0
2014-Oct-16 20:33N 62°14' W 006°48'0 0.0
2014-Oct-16 19:33N 62°14' W 006°48'0 0.0
2014-Oct-16 18:33N 62°14' W 006°48'0 0.0
2014-Oct-16 17:33N 62°14' W 006°48'0 0.0
2014-Oct-16 16:33N 62°14' W 006°48'0 0.0
2014-Oct-16 15:33N 62°14' W 006°48'0 0.0
2014-Oct-16 14:33N 62°14' W 006°48'0 0.0
2014-Oct-16 13:30N 62°14' W 006°48'1 0.8
2014-Oct-16 12:31N 62°13' W 006°48'0 0.3
2014-Oct-16 11:33N 62°14' W 006°48'2 2.3
2014-Oct-16 10:33N 62°14' W 006°44'3 3.2
2014-Oct-16 09:32N 62°10' W 006°43'0 0.0
2014-Oct-16 08:29N 62°10' W 006°43'3 2.9
2014-Oct-16 07:31N 62°13' W 006°39'5 4.7
2014-Oct-16 06:31N 62°14' W 006°48'0 0.0
2014-Oct-16 05:31N 62°14' W 006°48'0 0.0
2014-Oct-16 04:31N 62°14' W 006°48'0 0.0
2014-Oct-16 03:31N 62°14' W 006°48'0 0.0
2014-Oct-16 02:31N 62°14' W 006°48'0 0.0
2014-Oct-16 01:31N 62°14' W 006°48'0 0.0
2014-Oct-16 00:31N 62°14' W 006°48'0 0.0
2014-Oct-15 23:31N 62°14' W 006°48'0 0.0
2014-Oct-15 22:31N 62°14' W 006°48'0 0.0
2014-Oct-15 21:31N 62°14' W 006°48'0 0.0
2014-Oct-15 20:31N 62°14' W 006°48'0 0.0
2014-Oct-15 19:31N 62°14' W 006°48'0 0.0
2014-Oct-15 18:31N 62°14' W 006°48'0 0.0
2014-Oct-15 17:31N 62°14' W 006°48'7 6.6
2014-Oct-15 16:30N 62°11' W 006°35'2 1.0
2014-Oct-15 14:28N 62°10' W 006°31'5 5.4
2014-Oct-15 13:31N 62°08' W 006°41'3 3.6
2014-Oct-15 12:34N 62°05' W 006°39'5 5.0
2014-Oct-15 11:33N 62°03' W 006°49'4 4.3
2014-Oct-15 10:31N 61°59' W 006°45'3 2.8
2014-Oct-15 09:34N 62°02' W 006°43'  
Track history (hours):
 
Tides and Currents Weather Stations Pressure Air Temp Water Temp Dewpoint Dewpoint Depression Visibility Wind Speed Wind Dir Waves Ship Positions

Hav Tind

Last reported at 2014-Oct-25 08:33 UTC. Time now 2014-Oct-25 08:56 UTC.
Position N 62°14' W 006°48'.

Length 60 m; draft 4 m.

Type: Cargo ship. MMSI: 231565000.

Date/timePositionNaut miles runAvg speedWind from/ knotsBaromVisibWave heightAir tempDewpointWater temp
2014-Oct-25 08:33N 62°14' W 006°48'0 0.0
2014-Oct-25 07:19N 62°14' W 006°48'0 0.0
2014-Oct-25 06:31N 62°14' W 006°48'0 0.0
2014-Oct-25 05:31N 62°14' W 006°48'0 0.0
2014-Oct-25 04:28N 62°14' W 006°48'0 0.0
2014-Oct-25 03:31N 62°14' W 006°48'0 0.0
2014-Oct-25 02:25N 62°14' W 006°48'0 0.0
2014-Oct-25 01:28N 62°14' W 006°48'0 0.0
2014-Oct-25 00:31N 62°14' W 006°48'0 0.0
2014-Oct-24 23:28N 62°14' W 006°48'0 0.0
2014-Oct-24 22:33N 62°14' W 006°48'0 0.0
2014-Oct-24 21:28N 62°14' W 006°48'0 0.0
2014-Oct-24 20:31N 62°14' W 006°48'0 0.0
2014-Oct-24 19:28N 62°14' W 006°48'0 0.0
2014-Oct-24 18:27N 62°14' W 006°48'7 7.5
2014-Oct-24 17:32N 62°11' W 006°35'4 0.8
2014-Oct-24 12:12N 62°11' W 006°27'3 1.9
2014-Oct-24 10:32N 62°10' W 006°33'8 7.5
2014-Oct-24 09:30N 62°13' W 006°48'0 0.1
2014-Oct-24 08:30N 62°14' W 006°48'1 0.7
2014-Oct-24 07:31N 62°14' W 006°48'0 0.0
2014-Oct-24 06:22N 62°14' W 006°48'0 0.0
2014-Oct-24 05:31N 62°14' W 006°48'0 0.0
2014-Oct-24 04:31N 62°14' W 006°48'0 0.0
2014-Oct-24 03:31N 62°14' W 006°48'0 0.0
2014-Oct-24 02:31N 62°14' W 006°48'0 0.0
2014-Oct-24 01:31N 62°14' W 006°48'0 0.0
2014-Oct-24 00:28N 62°14' W 006°48'0 0.0
2014-Oct-23 23:22N 62°14' W 006°48'0 0.0
2014-Oct-23 22:31N 62°14' W 006°48'0 0.0
2014-Oct-23 21:31N 62°14' W 006°48'0 0.0
2014-Oct-23 20:28N 62°14' W 006°48'0 0.0
2014-Oct-23 19:31N 62°14' W 006°48'0 0.0
2014-Oct-23 18:31N 62°14' W 006°48'5 4.9
2014-Oct-23 17:33N 62°12' W 006°39'3 2.4
2014-Oct-23 16:28N 62°10' W 006°43'0 0.0
2014-Oct-23 15:25N 62°10' W 006°43'3 2.7
2014-Oct-23 14:28N 62°12' W 006°39'5 5.0
2014-Oct-23 13:29N 62°14' W 006°48'0 0.1
2014-Oct-23 12:33N 62°14' W 006°48'2 0.3
2014-Oct-23 07:22N 62°15' W 006°46'2 1.9
2014-Oct-23 06:32N 62°14' W 006°48'0 0.0
2014-Oct-23 05:32N 62°14' W 006°48'0 0.0
2014-Oct-23 04:32N 62°14' W 006°48'0 0.0
2014-Oct-23 03:29N 62°14' W 006°48'0 0.0
2014-Oct-23 02:26N 62°14' W 006°48'0 0.0
2014-Oct-23 01:29N 62°14' W 006°48'0 0.0
2014-Oct-23 00:29N 62°14' W 006°48'0 0.0
2014-Oct-22 23:29N 62°14' W 006°48'0 0.0
2014-Oct-22 22:32N 62°14' W 006°48'0 0.0
2014-Oct-22 21:32N 62°14' W 006°48'0 0.0
2014-Oct-22 20:32N 62°14' W 006°48'0 0.0
2014-Oct-22 19:23N 62°14' W 006°48'0 0.0
2014-Oct-22 18:32N 62°14' W 006°48'0 0.0
2014-Oct-22 17:29N 62°14' W 006°48'1 1.3
2014-Oct-22 16:33N 62°14' W 006°46'7 7.0
2014-Oct-22 15:33N 62°08' W 006°38'2 1.6
2014-Oct-22 14:34N 62°08' W 006°42'7 6.8
2014-Oct-22 13:33N 62°01' W 006°42'3 2.7
2014-Oct-22 12:33N 61°59' W 006°45'4 4.4
2014-Oct-22 11:33N 62°03' W 006°41'8 7.6
2014-Oct-22 10:33N 62°10' W 006°36'7 5.7
2014-Oct-22 09:19N 62°14' W 006°48'0 0.0
2014-Oct-22 08:31N 62°14' W 006°48'0 0.0
2014-Oct-22 07:28N 62°14' W 006°48'0 0.0
2014-Oct-22 06:28N 62°14' W 006°48'0 0.0
2014-Oct-22 05:22N 62°14' W 006°48'0 0.0
2014-Oct-22 04:28N 62°14' W 006°48'0 0.0
2014-Oct-22 03:28N 62°14' W 006°48'0 0.0
2014-Oct-22 02:28N 62°14' W 006°48'0 0.0
2014-Oct-22 01:31N 62°14' W 006°48'0 0.0
2014-Oct-22 00:28N 62°14' W 006°48'0 0.0
2014-Oct-21 23:19N 62°14' W 006°48'0 0.0
2014-Oct-21 22:22N 62°14' W 006°48'0 0.0
2014-Oct-21 21:31N 62°14' W 006°48'0 0.0
2014-Oct-21 20:31N 62°14' W 006°48'0 0.0
2014-Oct-21 19:28N 62°14' W 006°48'0 0.0
2014-Oct-21 18:13N 62°14' W 006°48'0 0.0
2014-Oct-21 17:28N 62°14' W 006°48'0 0.0
2014-Oct-21 16:31N 62°14' W 006°48'0 0.0
2014-Oct-21 15:31N 62°14' W 006°48'0 0.0
2014-Oct-21 14:31N 62°14' W 006°48'0 0.0
2014-Oct-21 13:25N 62°14' W 006°48'0 0.0
2014-Oct-21 12:19N 62°14' W 006°48'0 0.0
2014-Oct-21 11:25N 62°14' W 006°48'0 0.0
2014-Oct-21 10:31N 62°14' W 006°48'0 0.0
2014-Oct-21 09:22N 62°14' W 006°48'0 0.0
2014-Oct-21 08:19N 62°14' W 006°48'0 0.0
2014-Oct-21 07:28N 62°14' W 006°48'0 0.0
2014-Oct-21 06:16N 62°14' W 006°48'0 0.0
2014-Oct-21 05:25N 62°14' W 006°48'0 0.0
2014-Oct-21 04:28N 62°14' W 006°48'0 0.0
2014-Oct-21 03:28N 62°14' W 006°48'0 0.0
2014-Oct-21 02:28N 62°14' W 006°48'0 0.0
2014-Oct-21 01:31N 62°14' W 006°48'0 0.0
2014-Oct-21 00:25N 62°14' W 006°48'0 0.0
2014-Oct-20 23:31N 62°14' W 006°48'0 0.0
2014-Oct-20 22:31N 62°14' W 006°48'0 0.0
2014-Oct-20 21:28N 62°14' W 006°48'0 0.0
2014-Oct-20 20:25N 62°14' W 006°48'0 0.0
2014-Oct-20 19:25N 62°14' W 006°48'0 0.0
2014-Oct-20 18:31N 62°14' W 006°48'0 0.0
2014-Oct-20 17:28N 62°14' W 006°48'0 0.0
2014-Oct-20 16:19N 62°14' W 006°48'0 0.0
2014-Oct-20 15:25N 62°14' W 006°48'8 9.5
2014-Oct-20 14:34N 62°10' W 006°33'3 0.6
2014-Oct-20 09:04N 62°11' W 006°27'6 8.8
2014-Oct-20 08:21N 62°12' W 006°39'4 5.4
2014-Oct-20 07:33N 62°14' W 006°48'0 0.0
2014-Oct-20 06:33N 62°14' W 006°48'0 0.1
2014-Oct-20 05:18N 62°14' W 006°48'0 0.0
2014-Oct-20 04:30N 62°14' W 006°48'0 0.0
2014-Oct-20 03:18N 62°14' W 006°48'0 0.0
2014-Oct-20 02:21N 62°14' W 006°48'0 0.0
2014-Oct-20 01:27N 62°14' W 006°48'0 0.0
2014-Oct-20 00:30N 62°14' W 006°48'0 0.0
2014-Oct-19 23:12N 62°14' W 006°48'0 0.0
2014-Oct-19 22:33N 62°14' W 006°48'0 0.0
2014-Oct-19 21:27N 62°14' W 006°48'0 0.0
2014-Oct-19 20:24N 62°14' W 006°48'0 0.0
2014-Oct-19 19:33N 62°14' W 006°48'0 0.0
2014-Oct-19 18:33N 62°14' W 006°48'0 0.0
2014-Oct-19 17:33N 62°14' W 006°48'0 0.0
2014-Oct-19 16:18N 62°14' W 006°48'0 0.0
2014-Oct-19 15:33N 62°14' W 006°48'0 0.0
2014-Oct-19 14:18N 62°14' W 006°48'0 0.0
2014-Oct-19 13:33N 62°14' W 006°48'0 0.0
2014-Oct-19 12:33N 62°14' W 006°48'0 0.0
2014-Oct-19 11:33N 62°14' W 006°48'0 0.0
2014-Oct-19 10:30N 62°14' W 006°48'0 0.0
2014-Oct-19 09:33N 62°14' W 006°48'0 0.0
2014-Oct-19 08:30N 62°14' W 006°48'0 0.0
2014-Oct-19 07:33N 62°14' W 006°48'0 0.0
2014-Oct-19 06:33N 62°14' W 006°48'0 0.0
2014-Oct-19 05:33N 62°14' W 006°48'0 0.0
2014-Oct-19 04:33N 62°14' W 006°48'0 0.0
2014-Oct-19 03:33N 62°14' W 006°48'0 0.0
2014-Oct-19 02:33N 62°14' W 006°48'0 0.0
2014-Oct-19 01:33N 62°14' W 006°48'0 0.0
2014-Oct-19 00:30N 62°14' W 006°48'0 0.0
2014-Oct-18 23:33N 62°14' W 006°48'0 0.0
2014-Oct-18 22:30N 62°14' W 006°48'0 0.0
2014-Oct-18 21:33N 62°14' W 006°48'0 0.0
2014-Oct-18 20:30N 62°14' W 006°48'0 0.0
2014-Oct-18 19:33N 62°14' W 006°48'0 0.0
2014-Oct-18 18:27N 62°14' W 006°48'0 0.0
2014-Oct-18 17:33N 62°14' W 006°48'0 0.0
2014-Oct-18 16:33N 62°14' W 006°48'0 0.0
2014-Oct-18 15:33N 62°14' W 006°48'0 0.0
2014-Oct-18 14:33N 62°14' W 006°48'0 0.0
2014-Oct-18 13:30N 62°14' W 006°48'0 0.0
2014-Oct-18 12:33N 62°14' W 006°48'0 0.0
2014-Oct-18 11:33N 62°14' W 006°48'0 0.0
2014-Oct-18 10:33N 62°14' W 006°48'0 0.0
2014-Oct-18 09:30N 62°14' W 006°48'0 0.0
2014-Oct-18 08:33N 62°14' W 006°48'0 0.0
2014-Oct-18 07:33N 62°14' W 006°48'0 0.0
2014-Oct-18 06:33N 62°14' W 006°48'0 0.0
2014-Oct-18 05:33N 62°14' W 006°48'0 0.0
2014-Oct-18 04:33N 62°14' W 006°48'0 0.0
2014-Oct-18 03:33N 62°14' W 006°48'0 0.0
2014-Oct-18 02:33N 62°14' W 006°48'0 0.0
2014-Oct-18 01:33N 62°14' W 006°48'0 0.0
2014-Oct-18 00:33N 62°14' W 006°48'0 0.0
2014-Oct-17 23:33N 62°14' W 006°48'0 0.0
2014-Oct-17 22:33N 62°14' W 006°48'0 0.0
2014-Oct-17 21:33N 62°14' W 006°48'0 0.0
2014-Oct-17 20:30N 62°14' W 006°48'0 0.0
2014-Oct-17 19:33N 62°14' W 006°48'0 0.0
2014-Oct-17 18:33N 62°14' W 006°48'0 0.0
2014-Oct-17 17:33N 62°14' W 006°48'0 0.1
2014-Oct-17 16:33N 62°14' W 006°48'0 0.0
2014-Oct-17 15:33N 62°14' W 006°48'0 0.0
2014-Oct-17 14:33N 62°14' W 006°48'0 0.0
2014-Oct-17 13:33N 62°14' W 006°48'0 0.0
2014-Oct-17 12:33N 62°14' W 006°48'0 0.0
2014-Oct-17 11:33N 62°14' W 006°48'0 0.0
2014-Oct-17 10:33N 62°14' W 006°48'0 0.0
2014-Oct-17 09:33N 62°14' W 006°48'0 0.0
2014-Oct-17 08:33N 62°14' W 006°48'0 0.0
2014-Oct-17 07:33N 62°14' W 006°48'0 0.0
2014-Oct-17 06:33N 62°14' W 006°48'0 0.0
2014-Oct-17 05:33N 62°14' W 006°48'0 0.0
2014-Oct-17 04:33N 62°14' W 006°48'0 0.0
2014-Oct-17 03:33N 62°14' W 006°48'0 0.0
2014-Oct-17 02:33N 62°14' W 006°48'0 0.0
2014-Oct-17 01:33N 62°14' W 006°48'0 0.0
2014-Oct-17 00:33N 62°14' W 006°48'0 0.0
2014-Oct-16 23:33N 62°14' W 006°48'0 0.0
2014-Oct-16 22:33N 62°14' W 006°48'0 0.0
2014-Oct-16 21:33N 62°14' W 006°48'0 0.0
2014-Oct-16 20:33N 62°14' W 006°48'0 0.0
2014-Oct-16 19:33N 62°14' W 006°48'0 0.0
2014-Oct-16 18:33N 62°14' W 006°48'0 0.0
2014-Oct-16 17:33N 62°14' W 006°48'0 0.0
2014-Oct-16 16:33N 62°14' W 006°48'0 0.0
2014-Oct-16 15:33N 62°14' W 006°48'0 0.0
2014-Oct-16 14:33N 62°14' W 006°48'0 0.0
2014-Oct-16 13:30N 62°14' W 006°48'1 0.8
2014-Oct-16 12:31N 62°13' W 006°48'0 0.3
2014-Oct-16 11:33N 62°14' W 006°48'2 2.3
2014-Oct-16 10:33N 62°14' W 006°44'3 3.2
2014-Oct-16 09:32N 62°10' W 006°43'0 0.0
2014-Oct-16 08:29N 62°10' W 006°43'3 2.9
2014-Oct-16 07:31N 62°13' W 006°39'5 4.7
2014-Oct-16 06:31N 62°14' W 006°48'0 0.0
2014-Oct-16 05:31N 62°14' W 006°48'0 0.0
2014-Oct-16 04:31N 62°14' W 006°48'0 0.0
2014-Oct-16 03:31N 62°14' W 006°48'0 0.0
2014-Oct-16 02:31N 62°14' W 006°48'0 0.0
2014-Oct-16 01:31N 62°14' W 006°48'0 0.0
2014-Oct-16 00:31N 62°14' W 006°48'0 0.0
2014-Oct-15 23:31N 62°14' W 006°48'0 0.0
2014-Oct-15 22:31N 62°14' W 006°48'0 0.0
2014-Oct-15 21:31N 62°14' W 006°48'0 0.0
2014-Oct-15 20:31N 62°14' W 006°48'0 0.0
2014-Oct-15 19:31N 62°14' W 006°48'0 0.0
2014-Oct-15 18:31N 62°14' W 006°48'0 0.0
2014-Oct-15 17:31N 62°14' W 006°48'7 6.6
2014-Oct-15 16:30N 62°11' W 006°35'2 1.0
2014-Oct-15 14:28N 62°10' W 006°31'5 5.4
2014-Oct-15 13:31N 62°08' W 006°41'3 3.6
2014-Oct-15 12:34N 62°05' W 006°39'5 5.0
2014-Oct-15 11:33N 62°03' W 006°49'4 4.3
2014-Oct-15 10:31N 61°59' W 006°45'3 2.8
2014-Oct-15 09:34N 62°02' W 006°43'  

Dump ship's entire track history